Time;durP1;ratioP1;P1;durP2;ratioP2;P2;SDS_P1;SDS_P2;PMS_P1;PMS_P2;Temp;Humidity;BMP_temperature;BMP_pressure;BME280_temperature;BME280_humidity;BME280_pressure;Samples;Min_cycle;Max_cycle;Signal;HPM_P1;HPM_P2
2023/04/13 00:01:11;;;;;;;4.13;0.90;;;;;;;;;;5070608;28;20022;-81
2023/04/13 00:03:37;;;;;;;1.33;0.70;;;;;;;;;;5065914;28;20020;-79
2023/04/13 00:06:09;;;;;;;3.10;0.63;;;;;;;;;;5063247;28;20040;-80
2023/04/13 00:08:35;;;;;;;3.60;0.70;;;;;;;;;;5063448;28;20090;-80
2023/04/13 00:11:03;;;;;;;2.00;0.43;;;;;;;;;;5063667;28;20076;-79
2023/04/13 00:13:39;;;;;;;2.07;0.60;;;;;;;;;;5064428;28;20017;-79
2023/04/13 00:16:13;;;;;;;2.90;0.53;;;;;;;;;;5063541;28;20022;-79
2023/04/13 00:18:39;;;;;;;2.27;0.63;;;;;;;;;;5067001;28;20014;-80
2023/04/13 00:21:05;;;;;;;1.73;0.50;;;;;;;;;;5065494;28;20033;-79
2023/04/13 00:23:34;;;;;;;5.73;1.23;;;;;;;;;;5079797;28;20145;-80
2023/04/13 00:26:00;;;;;;;4.67;1.37;;;;;;;;;;5065516;28;20037;-79
2023/04/13 00:28:29;;;;;;;6.17;1.10;;;;;;;;;;5064550;28;20025;-79
2023/04/13 00:30:55;;;;;;;2.70;0.60;;;;;;;;;;5066228;28;20090;-79
2023/04/13 00:33:21;;;;;;;4.00;0.70;;;;;;;;;;5071577;28;20029;-78
2023/04/13 00:35:47;;;;;;;6.20;1.07;;;;;;;;;;5064448;28;20033;-78
2023/04/13 00:38:17;;;;;;;4.20;0.77;;;;;;;;;;5064056;28;20010;-80
2023/04/13 00:40:45;;;;;;;2.70;0.80;;;;;;;;;;5063169;28;20040;-80
2023/04/13 00:43:11;;;;;;;4.70;0.90;;;;;;;;;;5063103;28;20033;-80
2023/04/13 00:45:37;;;;;;;6.97;0.80;;;;;;;;;;5064783;28;20044;-79
2023/04/13 00:48:04;;;;;;;2.03;0.60;;;;;;;;;;5070297;28;20021;-80
2023/04/13 00:50:32;;;;;;;3.17;1.00;;;;;;;;;;5064442;28;20052;-79
2023/04/13 00:52:59;;;;;;;12.03;0.70;;;;;;;;;;5064809;28;20049;-80
2023/04/13 00:55:28;;;;;;;5.00;0.50;;;;;;;;;;5062191;28;20031;-79
2023/04/13 00:57:54;;;;;;;2.87;0.63;;;;;;;;;;5064777;28;20047;-79
2023/04/13 01:00:23;;;;;;;2.97;0.70;;;;;;;;;;5062002;28;20017;-81
2023/04/13 01:02:52;;;;;;;7.50;0.70;;;;;;;;;;5063245;28;20021;-81
2023/04/13 01:05:18;;;;;;;3.80;0.93;;;;;;;;;;5062720;28;20047;-81
2023/04/13 01:07:50;;;;;;;3.37;0.97;;;;;;;;;;5064208;28;20074;-80
2023/04/13 01:10:28;;;;;;;4.87;0.93;;;;;;;;;;5065291;28;20049;-80
2023/04/13 01:13:19;;;;;;;3.43;0.70;;;;;;;;;;5066987;28;20059;-81
2023/04/13 01:15:48;;;;;;;4.93;1.00;;;;;;;;;;5063721;28;20040;-80
2023/04/13 01:18:17;;;;;;;5.20;1.00;;;;;;;;;;5064421;28;20057;-81
2023/04/13 01:20:45;;;;;;;3.73;0.90;;;;;;;;;;5062864;28;20085;-82
2023/04/13 01:23:23;;;;;;;4.10;0.80;;;;;;;;;;5062864;28;20061;-81
2023/04/13 01:26:06;;;;;;;3.23;0.63;;;;;;;;;;5063891;28;20020;-80
2023/04/13 01:28:35;;;;;;;3.22;0.70;;;;;;;;;;5063005;28;20041;-80
2023/04/13 01:31:04;;;;;;;2.40;0.73;;;;;;;;;;5063407;28;20146;-79
2023/04/13 01:33:33;;;;;;;7.73;1.20;;;;;;;;;;5064469;28;20036;-79
2023/04/13 01:36:02;;;;;;;3.00;0.73;;;;;;;;;;5062641;28;20018;-79
2023/04/13 01:38:28;;;;;;;3.43;0.70;;;;;;;;;;5062674;28;20031;-80
2023/04/13 01:40:54;;;;;;;4.00;0.80;;;;;;;;;;5067224;28;20017;-82
2023/04/13 01:43:21;;;;;;;2.90;0.70;;;;;;;;;;5065687;28;20025;-80
2023/04/13 01:46:02;;;;;;;1.63;0.50;;;;;;;;;;5064497;28;20039;-81
2023/04/13 01:48:47;;;;;;;5.03;0.80;;;;;;;;;;5064636;28;21244;-79
2023/04/13 01:51:13;;;;;;;2.83;0.60;;;;;;;;;;5069186;28;20041;-82
2023/04/13 01:53:45;;;;;;;4.87;0.77;;;;;;;;;;5062514;28;20033;-81
2023/04/13 01:56:12;;;;;;;2.97;0.73;;;;;;;;;;5065378;28;20074;-82
2023/04/13 01:58:39;;;;;;;4.43;1.10;;;;;;;;;;5066165;28;20032;-79
2023/04/13 02:01:06;;;;;;;4.20;1.10;;;;;;;;;;5065218;28;20760;-79
2023/04/13 02:03:33;;;;;;;2.90;0.93;;;;;;;;;;5066644;28;20740;-81
2023/04/13 02:06:02;;;;;;;3.10;0.73;;;;;;;;;;5066650;28;20110;-80
2023/04/13 02:08:30;;;;;;;1.87;0.60;;;;;;;;;;5062695;28;20136;-82
2023/04/13 02:10:56;;;;;;;2.03;0.63;;;;;;;;;;5066205;28;20040;-81
2023/04/13 02:13:24;;;;;;;4.17;0.80;;;;;;;;;;5069413;28;20069;-81
2023/04/13 02:15:51;;;;;;;3.43;0.60;;;;;;;;;;5068604;28;20014;-80
2023/04/13 02:18:17;;;;;;;3.27;0.67;;;;;;;;;;5067212;28;20025;-80
2023/04/13 02:20:46;;;;;;;2.70;0.53;;;;;;;;;;5067538;28;20017;-80
2023/04/13 02:23:15;;;;;;;2.27;0.80;;;;;;;;;;5067873;28;21211;-80
2023/04/13 02:25:45;;;;;;;2.37;0.60;;;;;;;;;;5064743;28;20058;-81
2023/04/13 02:28:11;;;;;;;2.80;0.80;;;;;;;;;;5064942;28;20034;-81
2023/04/13 02:30:37;;;;;;;2.90;0.80;;;;;;;;;;5065183;28;20059;-79
2023/04/13 02:33:08;;;;;;;3.30;0.60;;;;;;;;;;5065146;28;20017;-81
2023/04/13 02:35:37;;;;;;;3.90;0.73;;;;;;;;;;5065308;28;20077;-83
2023/04/13 02:38:03;;;;;;;3.17;0.57;;;;;;;;;;5068957;28;20017;-80
2023/04/13 02:40:32;;;;;;;1.73;0.37;;;;;;;;;;5067251;28;20026;-81
2023/04/13 02:42:58;;;;;;;3.17;0.80;;;;;;;;;;5065845;28;20100;-80
2023/04/13 02:45:25;;;;;;;1.97;0.50;;;;;;;;;;5071599;28;20018;-80
2023/04/13 02:47:51;;;;;;;1.30;0.50;;;;;;;;;;5065658;28;20328;-81
2023/04/13 02:50:17;;;;;;;3.57;0.90;;;;;;;;;;5064652;28;20033;-80
2023/04/13 02:52:46;;;;;;;3.93;0.53;;;;;;;;;;5065113;28;20039;-79
2023/04/13 02:55:15;;;;;;;2.30;0.90;;;;;;;;;;5068520;28;20044;-81
2023/04/13 02:57:42;;;;;;;3.43;0.80;;;;;;;;;;5067498;28;20033;-81
2023/04/13 03:00:14;;;;;;;4.30;0.60;;;;;;;;;;5070289;28;20027;-80
2023/04/13 03:02:41;;;;;;;;;;;;;;;;;;5068713;28;20111;-79
2023/04/13 03:05:07;;;;;;;2.67;0.40;;;;;;;;;;5071751;28;19908;-80
2023/04/13 03:07:34;;;;;;;2.63;0.40;;;;;;;;;;5070712;28;20035;-80
2023/04/13 03:10:03;;;;;;;2.70;0.60;;;;;;;;;;5072499;28;20053;-79
2023/04/13 03:12:30;;;;;;;3.23;0.60;;;;;;;;;;5071149;28;20025;-80
2023/04/13 03:14:56;;;;;;;2.67;0.87;;;;;;;;;;5068609;28;20029;-80
2023/04/13 03:17:22;;;;;;;0.80;0.40;;;;;;;;;;5070838;28;20029;-80
2023/04/13 03:19:49;;;;;;;4.60;1.30;;;;;;;;;;5072191;28;20032;-80
2023/04/13 03:22:18;;;;;;;2.93;0.50;;;;;;;;;;5074142;28;20068;-79
2023/04/13 03:24:44;;;;;;;2.23;0.87;;;;;;;;;;5070659;28;20013;-79
2023/04/13 03:27:10;;;;;;;3.03;0.50;;;;;;;;;;5070752;28;20044;-80
2023/04/13 03:29:39;;;;;;;2.23;0.80;;;;;;;;;;5071633;28;20012;-78
2023/04/13 03:32:07;;;;;;;2.63;0.83;;;;;;;;;;5072349;28;20048;-81
2023/04/13 03:34:43;;;;;;;2.20;0.40;;;;;;;;;;5069453;28;20078;-79
2023/04/13 03:37:12;;;;;;;3.13;0.60;;;;;;;;;;5073408;28;20029;-82
2023/04/13 03:39:38;;;;;;;3.03;0.33;;;;;;;;;;5070143;28;20923;-81
2023/04/13 03:42:06;;;;;;;3.03;0.60;;;;;;;;;;5070912;28;20040;-80
2023/04/13 03:44:33;;;;;;;3.23;0.40;;;;;;;;;;5078421;28;20029;-82
2023/04/13 03:47:02;;;;;;;1.17;0.30;;;;;;;;;;5070112;28;20021;-79
2023/04/13 03:49:31;;;;;;;2.60;0.47;;;;;;;;;;5070794;28;20021;-80
2023/04/13 03:51:57;;;;;;;2.90;1.23;;;;;;;;;;5069938;28;20073;-78
2023/04/13 03:54:24;;;;;;;2.13;0.70;;;;;;;;;;5071221;28;20028;-79
2023/04/13 03:56:56;;;;;;;1.33;0.50;;;;;;;;;;5074669;28;20049;-80
2023/04/13 03:59:22;;;;;;;9.60;0.93;;;;;;;;;;5068573;28;20013;-80
2023/04/13 04:01:48;;;;;;;1.40;0.40;;;;;;;;;;5070549;28;20028;-80
2023/04/13 04:04:17;;;;;;;2.23;0.40;;;;;;;;;;5069879;28;20025;-78
2023/04/13 04:06:43;;;;;;;4.40;0.67;;;;;;;;;;5069485;28;20025;-79
2023/04/13 04:09:09;;;;;;;3.77;0.50;;;;;;;;;;5070101;28;20021;-79
2023/04/13 04:11:35;;;;;;;3.20;0.87;;;;;;;;;;5068600;28;20033;-80
2023/04/13 04:14:01;;;;;;;2.87;0.43;;;;;;;;;;5070674;28;20033;-79
2023/04/13 04:16:29;;;;;;;4.70;0.60;;;;;;;;;;5071509;28;20032;-79
2023/04/13 04:18:57;;;;;;;3.13;0.60;;;;;;;;;;5069922;28;20021;-79
2023/04/13 04:21:32;;;;;;;3.47;0.53;;;;;;;;;;5071973;28;20146;-79
2023/04/13 04:23:59;;;;;;;0.70;0.23;;;;;;;;;;5072592;28;20014;-79
2023/04/13 04:26:25;;;;;;;1.00;0.37;;;;;;;;;;5068381;28;20025;-80
2023/04/13 04:28:51;;;;;;;1.60;0.47;;;;;;;;;;5068034;28;20059;-79
2023/04/13 04:31:17;;;;;;;2.40;0.40;;;;;;;;;;5067803;28;20044;-79
2023/04/13 04:33:44;;;;;;;2.57;0.53;;;;;;;;;;5068687;28;20045;-80
2023/04/13 04:36:15;;;;;;;3.47;0.60;;;;;;;;;;5069806;28;20046;-80
2023/04/13 04:38:41;;;;;;;4.83;0.93;;;;;;;;;;5069672;28;20047;-81
2023/04/13 04:41:07;;;;;;;1.93;0.50;;;;;;;;;;5068961;28;20097;-79
2023/04/13 04:43:44;;;;;;;1.60;0.40;;;;;;;;;;5067591;28;20029;-80
2023/04/13 04:46:14;;;;;;;1.00;0.40;;;;;;;;;;5066656;28;20021;-80
2023/04/13 04:48:42;;;;;;;5.80;0.80;;;;;;;;;;5072068;28;20025;-81
2023/04/13 04:51:10;;;;;;;1.30;0.60;;;;;;;;;;5066527;28;20053;-79
2023/04/13 04:53:53;;;;;;;0.67;0.10;;;;;;;;;;5062737;28;20024;-82
2023/04/13 04:56:20;;;;;;;2.63;0.33;;;;;;;;;;5066811;28;20067;-80
2023/04/13 04:58:46;;;;;;;0.77;0.33;;;;;;;;;;5064258;28;20039;-82
2023/04/13 05:01:16;;;;;;;1.37;0.30;;;;;;;;;;5066929;28;20111;-81
2023/04/13 05:03:42;;;;;;;1.37;0.20;;;;;;;;;;5069751;28;20016;-81
2023/04/13 05:06:09;;;;;;;0.80;0.30;;;;;;;;;;5060482;28;20033;-80
2023/04/13 05:08:35;;;;;;;1.67;0.43;;;;;;;;;;5063348;28;20026;-82
2023/04/13 05:11:03;;;;;;;1.07;0.30;;;;;;;;;;5066080;28;20039;-82
2023/04/13 05:13:29;;;;;;;2.20;0.40;;;;;;;;;;5063621;28;20084;-80
2023/04/13 05:15:55;;;;;;;2.80;0.90;;;;;;;;;;5065235;28;20126;-83
2023/04/13 05:18:21;;;;;;;2.00;0.30;;;;;;;;;;5064222;28;20110;-84
2023/04/13 05:20:47;;;;;;;1.37;0.33;;;;;;;;;;5063724;28;20047;-81
2023/04/13 05:23:13;;;;;;;0.33;0.30;;;;;;;;;;5063693;28;20037;-86
2023/04/13 05:25:39;;;;;;;5.50;0.40;;;;;;;;;;5063903;28;20033;-79
2023/04/13 05:28:05;;;;;;;2.27;0.20;;;;;;;;;;5066069;28;20037;-82
2023/04/13 05:30:34;;;;;;;1.73;0.40;;;;;;;;;;5063189;28;20060;-81
2023/04/13 05:33:04;;;;;;;1.70;0.40;;;;;;;;;;5067484;28;20035;-79
2023/04/13 05:35:40;;;;;;;2.37;0.30;;;;;;;;;;5068554;28;20031;-81
2023/04/13 05:38:06;;;;;;;0.57;0.17;;;;;;;;;;5063825;28;20100;-80
2023/04/13 05:40:34;;;;;;;0.77;0.20;;;;;;;;;;5063414;28;20050;-85
2023/04/13 05:43:02;;;;;;;1.33;0.30;;;;;;;;;;5063685;28;20040;-82
2023/04/13 05:45:28;;;;;;;0.30;0.20;;;;;;;;;;5064666;28;20029;-82
2023/04/13 05:47:57;;;;;;;2.67;0.80;;;;;;;;;;5065792;28;20039;-80
2023/04/13 05:50:26;;;;;;;2.23;0.67;;;;;;;;;;5064513;28;20039;-80
2023/04/13 05:52:58;;;;;;;1.57;0.30;;;;;;;;;;5069863;28;20077;-81
2023/04/13 05:55:29;;;;;;;3.97;0.37;;;;;;;;;;5067256;28;20095;-82
2023/04/13 05:57:55;;;;;;;1.67;0.40;;;;;;;;;;5061226;28;20793;-80
2023/04/13 06:00:21;;;;;;;2.97;0.50;;;;;;;;;;5067055;28;20067;-79
2023/04/13 06:02:59;;;;;;;1.20;0.47;;;;;;;;;;5062574;28;20029;-81
2023/04/13 06:05:28;;;;;;;0.83;0.30;;;;;;;;;;5063488;28;20025;-79
2023/04/13 06:07:58;;;;;;;1.70;0.47;;;;;;;;;;5061926;28;20041;-78
2023/04/13 06:10:27;;;;;;;1.50;0.40;;;;;;;;;;5077988;28;20021;-81
2023/04/13 06:12:56;;;;;;;2.13;0.40;;;;;;;;;;5070053;28;20037;-80
2023/04/13 06:15:31;;;;;;;2.83;0.70;;;;;;;;;;5062138;28;20045;-79
2023/04/13 06:17:58;;;;;;;1.47;0.47;;;;;;;;;;5062380;28;20135;-80
2023/04/13 06:20:30;;;;;;;2.27;0.57;;;;;;;;;;5063277;28;20083;-79
2023/04/13 06:22:57;;;;;;;2.97;0.50;;;;;;;;;;5065238;28;20037;-78
2023/04/13 06:25:29;;;;;;;1.73;0.60;;;;;;;;;;5068367;28;20068;-80
2023/04/13 06:27:55;;;;;;;;;;;;;;;;;;5064861;28;20033;-81
2023/04/13 06:30:22;;;;;;;1.10;0.40;;;;;;;;;;5063579;28;19916;-80
2023/04/13 06:32:48;;;;;;;0.67;0.33;;;;;;;;;;5064779;28;20037;-81
2023/04/13 06:35:16;;;;;;;2.83;0.60;;;;;;;;;;5062453;28;20110;-80
2023/04/13 06:37:42;;;;;;;2.20;0.40;;;;;;;;;;5068690;28;20037;-80
2023/04/13 06:40:11;;;;;;;0.80;0.30;;;;;;;;;;5067324;28;20036;-81
2023/04/13 06:42:38;;;;;;;2.93;0.30;;;;;;;;;;5071023;28;20025;-80
2023/04/13 06:45:04;;;;;;;1.80;0.50;;;;;;;;;;5071623;28;20021;-80
2023/04/13 06:47:41;;;;;;;1.97;0.20;;;;;;;;;;5068615;28;20052;-81
2023/04/13 06:50:14;;;;;;;1.43;0.30;;;;;;;;;;5071384;28;20038;-83
2023/04/13 06:52:44;;;;;;;2.53;0.40;;;;;;;;;;5068292;28;20018;-80
2023/04/13 06:55:10;;;;;;;3.00;0.60;;;;;;;;;;5068975;28;20100;-78
2023/04/13 06:57:39;;;;;;;1.07;0.30;;;;;;;;;;5072644;28;20038;-78
2023/04/13 07:00:09;;;;;;;1.57;0.30;;;;;;;;;;5076553;28;20029;-80
2023/04/13 07:02:35;;;;;;;0.70;0.40;;;;;;;;;;5074881;28;20020;-81
2023/04/13 07:05:01;;;;;;;0.87;0.27;;;;;;;;;;5075231;28;20025;-79
2023/04/13 07:07:27;;;;;;;0.93;0.40;;;;;;;;;;5076322;28;20024;-79
2023/04/13 07:09:56;;;;;;;1.53;0.40;;;;;;;;;;5071989;28;20033;-80
2023/04/13 07:12:27;;;;;;;2.53;0.40;;;;;;;;;;5072264;28;20009;-80
2023/04/13 07:15:00;;;;;;;0.90;0.47;;;;;;;;;;5069977;28;20058;-81
2023/04/13 07:17:34;;;;;;;1.17;0.30;;;;;;;;;;5069373;28;20029;-80
2023/04/13 07:20:07;;;;;;;2.57;0.30;;;;;;;;;;5078319;28;20051;-79
2023/04/13 07:22:40;;;;;;;0.97;0.50;;;;;;;;;;5071884;28;20319;-80
2023/04/13 07:25:08;;;;;;;2.15;0.47;;;;;;;;;;5072339;28;20032;-80
2023/04/13 07:27:37;;;;;;;1.33;0.50;;;;;;;;;;5070514;28;20025;-79
2023/04/13 07:30:03;;;;;;;1.60;0.40;;;;;;;;;;5070267;28;20037;-81
2023/04/13 07:32:30;;;;;;;1.53;0.30;;;;;;;;;;5074147;28;20063;-78
2023/04/13 07:35:00;;;;;;;2.20;0.30;;;;;;;;;;5070102;28;20043;-79
2023/04/13 07:37:29;;;;;;;0.40;0.20;;;;;;;;;;5071645;28;20034;-81
2023/04/13 07:39:59;;;;;;;4.10;0.50;;;;;;;;;;5067630;28;20086;-80
2023/04/13 07:42:25;;;;;;;1.40;0.50;;;;;;;;;;5070563;28;20024;-79
2023/04/13 07:44:54;;;;;;;0.60;0.40;;;;;;;;;;5069046;28;20056;-79
2023/04/13 07:47:20;;;;;;;2.10;0.70;;;;;;;;;;5069870;28;20035;-79
2023/04/13 07:49:46;;;;;;;4.63;1.00;;;;;;;;;;5068085;28;20064;-79
2023/04/13 07:52:13;;;;;;;3.33;0.60;;;;;;;;;;5066799;28;20151;-81
2023/04/13 07:54:42;;;;;;;2.37;0.77;;;;;;;;;;5070696;28;20032;-80
2023/04/13 07:57:08;;;;;;;2.87;0.90;;;;;;;;;;5071674;28;20025;-80
2023/04/13 07:59:34;;;;;;;3.00;0.60;;;;;;;;;;5070131;28;20064;-80
2023/04/13 08:02:00;;;;;;;2.80;0.67;;;;;;;;;;5063664;28;20036;-80
2023/04/13 08:04:26;;;;;;;5.53;0.60;;;;;;;;;;5065267;28;20025;-80
2023/04/13 08:06:54;;;;;;;1.03;0.60;;;;;;;;;;5067398;28;20179;-79
2023/04/13 08:09:21;;;;;;;2.60;0.90;;;;;;;;;;5067790;28;20025;-79
2023/04/13 08:11:48;;;;;;;2.83;0.93;;;;;;;;;;5071595;28;20112;-80
2023/04/13 08:14:14;;;;;;;2.10;0.70;;;;;;;;;;5065655;28;20060;-79
2023/04/13 08:16:40;;;;;;;2.33;0.97;;;;;;;;;;5070457;28;20366;-80
2023/04/13 08:19:07;;;;;;;4.10;1.67;;;;;;;;;;5070164;28;20039;-79
2023/04/13 08:21:36;;;;;;;3.03;1.00;;;;;;;;;;5068641;28;20051;-80
2023/04/13 08:24:02;;;;;;;6.13;0.93;;;;;;;;;;5065363;28;20041;-80
2023/04/13 08:26:28;;;;;;;6.63;1.30;;;;;;;;;;5071786;28;20104;-80
2023/04/13 08:28:56;;;;;;;3.60;1.17;;;;;;;;;;5072895;28;20066;-80
2023/04/13 08:31:22;;;;;;;12.07;1.87;;;;;;;;;;5070879;28;20126;-79
2023/04/13 08:33:48;;;;;;;3.97;1.40;;;;;;;;;;5070493;28;20032;-80
2023/04/13 08:36:16;;;;;;;7.17;1.60;;;;;;;;;;5070707;28;20036;-79
2023/04/13 08:38:42;;;;;;;5.40;1.20;;;;;;;;;;5072174;28;20150;-79
2023/04/13 08:41:11;;;;;;;9.07;1.50;;;;;;;;;;5073445;28;20029;-79
2023/04/13 08:43:39;;;;;;;8.50;1.90;;;;;;;;;;5067171;28;20032;-79
2023/04/13 08:46:07;;;;;;;10.10;1.87;;;;;;;;;;5068461;28;20305;-80
2023/04/13 08:48:34;;;;;;;8.20;1.67;;;;;;;;;;5067017;28;20033;-80
2023/04/13 08:51:04;;;;;;;12.93;2.33;;;;;;;;;;5070465;28;20099;-79
2023/04/13 08:53:30;;;;;;;7.80;2.00;;;;;;;;;;5071006;28;20068;-80
2023/04/13 08:56:01;;;;;;;10.83;2.00;;;;;;;;;;5071776;28;20029;-80
2023/04/13 08:58:28;;;;;;;10.57;2.00;;;;;;;;;;5070873;28;20200;-80
2023/04/13 09:00:57;;;;;;;12.37;1.90;;;;;;;;;;5071676;28;20024;-79
2023/04/13 09:03:28;;;;;;;8.53;1.80;;;;;;;;;;5073314;28;20028;-80
2023/04/13 09:06:01;;;;;;;9.00;1.90;;;;;;;;;;5071415;28;20040;-79
2023/04/13 09:08:34;;;;;;;11.53;2.40;;;;;;;;;;5070731;28;20052;-80
2023/04/13 09:11:03;;;;;;;8.23;1.70;;;;;;;;;;5070099;28;20037;-79
2023/04/13 09:13:30;;;;;;;9.17;2.03;;;;;;;;;;5075930;28;20020;-79
2023/04/13 09:15:56;;;;;;;9.67;2.30;;;;;;;;;;5073816;28;20028;-80
2023/04/13 09:18:22;;;;;;;9.17;2.17;;;;;;;;;;5074843;28;20090;-79
2023/04/13 09:21:00;;;;;;;7.33;2.00;;;;;;;;;;5074709;28;20037;-79
2023/04/13 09:23:27;;;;;;;9.90;2.57;;;;;;;;;;5071782;28;20036;-80
2023/04/13 09:26:25;;;;;;;12.80;2.30;;;;;;;;;;5072354;28;20025;-81
2023/04/13 09:28:54;;;;;;;14.23;3.83;;;;;;;;;;5026416;28;20115;-78
2023/04/13 09:31:20;;;;;;;13.57;2.70;;;;;;;;;;5071367;28;20012;-78
2023/04/13 09:33:51;;;;;;;14.70;2.83;;;;;;;;;;5067773;28;20029;-81
2023/04/13 09:36:18;;;;;;;15.77;2.93;;;;;;;;;;5067947;28;20026;-80
2023/04/13 09:38:47;;;;;;;13.23;3.10;;;;;;;;;;5066677;28;20111;-80
2023/04/13 09:41:13;;;;;;;14.40;3.77;;;;;;;;;;5061243;28;20056;-79
2023/04/13 09:43:40;;;;;;;15.13;3.03;;;;;;;;;;5063902;28;20029;-80
2023/04/13 09:46:15;;;;;;;10.47;2.60;;;;;;;;;;5065256;28;20028;-81
2023/04/13 09:48:41;;;;;;;15.50;3.47;;;;;;;;;;5065066;28;20028;-80
2023/04/13 09:51:08;;;;;;;17.97;4.13;;;;;;;;;;5070194;28;20032;-81
2023/04/13 09:53:41;;;;;;;11.57;3.27;;;;;;;;;;5068733;28;20088;-80
2023/04/13 09:56:08;;;;;;;13.13;3.10;;;;;;;;;;5071899;28;20021;-81
2023/04/13 09:58:42;;;;;;;11.93;3.43;;;;;;;;;;5068589;28;20032;-79
2023/04/13 10:01:09;;;;;;;14.03;3.03;;;;;;;;;;5075517;28;20019;-80
2023/04/13 10:03:36;;;;;;;15.00;2.57;;;;;;;;;;5072449;28;20051;-80
2023/04/13 10:06:06;;;;;;;14.47;2.47;;;;;;;;;;5071719;28;20025;-79
2023/04/13 10:08:33;;;;;;;14.87;3.00;;;;;;;;;;5070636;28;20008;-80
2023/04/13 10:11:03;;;;;;;15.00;2.30;;;;;;;;;;5068894;28;20108;-80
2023/04/13 10:13:41;;;;;;;15.93;2.63;;;;;;;;;;5067540;28;20037;-80
2023/04/13 10:16:13;;;;;;;12.37;2.37;;;;;;;;;;5065673;28;20044;-83
2023/04/13 10:18:59;;;;;;;12.73;2.58;;;;;;;;;;5066855;28;20033;-80
2023/04/13 10:21:27;;;;;;;11.93;2.43;;;;;;;;;;5074263;28;20041;-80
2023/04/13 10:23:54;;;;;;;11.30;2.50;;;;;;;;;;5083545;28;20025;-79
2023/04/13 10:26:29;;;;;;;8.10;2.03;;;;;;;;;;5072896;28;20077;-80
2023/04/13 10:28:58;;;;;;;11.60;1.90;;;;;;;;;;5070786;28;20057;-81
2023/04/13 10:31:35;;;;;;;13.07;2.33;;;;;;;;;;5072279;28;20045;-81
2023/04/13 10:34:03;;;;;;;14.00;2.93;;;;;;;;;;5069737;28;20037;-81
2023/04/13 10:36:50;;;;;;;11.60;2.33;;;;;;;;;;5072066;28;20043;-80
2023/04/13 10:39:23;;;;;;;9.40;2.43;;;;;;;;;;5072210;28;20017;-79
2023/04/13 10:42:02;;;;;;;16.73;2.80;;;;;;;;;;5076264;28;20093;-80
2023/04/13 10:44:29;;;;;;;13.67;3.00;;;;;;;;;;5076421;28;20035;-80
2023/04/13 10:46:55;;;;;;;13.80;2.50;;;;;;;;;;5071110;28;20033;-78
2023/04/13 10:49:30;;;;;;;11.53;2.30;;;;;;;;;;5075413;28;20631;-79
2023/04/13 10:51:56;;;;;;;17.50;2.87;;;;;;;;;;5072082;28;20041;-80
2023/04/13 10:54:25;;;;;;;12.30;2.50;;;;;;;;;;5077723;28;20047;-79
2023/04/13 10:56:56;;;;;;;11.13;2.17;;;;;;;;;;5069804;28;20040;-81
2023/04/13 10:59:22;;;;;;;16.47;2.67;;;;;;;;;;5073261;28;20044;-80
2023/04/13 11:01:51;;;;;;;8.63;2.27;;;;;;;;;;5075411;28;20228;-81
2023/04/13 11:04:20;;;;;;;8.73;2.17;;;;;;;;;;5072629;28;20025;-81
2023/04/13 11:06:46;;;;;;;11.50;2.40;;;;;;;;;;5071767;28;20089;-80
2023/04/13 11:09:17;;;;;;;10.80;3.07;;;;;;;;;;5072722;28;20045;-79
2023/04/13 11:11:45;;;;;;;11.40;2.07;;;;;;;;;;5075114;28;20036;-82
2023/04/13 11:14:22;;;;;;;11.70;2.07;;;;;;;;;;5069324;28;20029;-81
2023/04/13 11:16:48;;;;;;;11.70;2.33;;;;;;;;;;5072981;28;20022;-80
2023/04/13 11:19:14;;;;;;;11.70;2.43;;;;;;;;;;5073873;28;20025;-79
2023/04/13 11:21:43;;;;;;;9.73;2.30;;;;;;;;;;5069937;28;20040;-78
2023/04/13 11:24:10;;;;;;;11.17;2.73;;;;;;;;;;5073013;28;20024;-80
2023/04/13 11:26:37;;;;;;;11.57;2.33;;;;;;;;;;5074773;28;20041;-79
2023/04/13 11:29:19;;;;;;;11.27;2.30;;;;;;;;;;5070398;28;20085;-82
2023/04/13 11:31:45;;;;;;;10.45;1.98;;;;;;;;;;5074273;28;20078;-81
2023/04/13 11:34:11;;;;;;;11.17;1.90;;;;;;;;;;5069201;28;20025;-82
2023/04/13 11:36:38;;;;;;;13.77;2.30;;;;;;;;;;5069474;28;20026;-81
2023/04/13 11:39:08;;;;;;;16.03;2.80;;;;;;;;;;5069995;28;20025;-81
2023/04/13 11:41:41;;;;;;;10.43;2.27;;;;;;;;;;5067236;28;20051;-80
2023/04/13 11:44:07;;;;;;;11.30;2.10;;;;;;;;;;5070219;28;20028;-80
2023/04/13 11:46:34;;;;;;;9.73;2.57;;;;;;;;;;5069489;28;20039;-79
2023/04/13 11:49:00;;;;;;;14.00;2.70;;;;;;;;;;5066132;28;20036;-80
2023/04/13 11:51:26;;;;;;;18.23;2.87;;;;;;;;;;5069064;28;20032;-80
2023/04/13 11:53:53;;;;;;;17.77;3.10;;;;;;;;;;5067751;28;20056;-80
2023/04/13 11:56:19;;;;;;;21.93;2.63;;;;;;;;;;5065371;28;20025;-80
2023/04/13 11:58:46;;;;;;;14.70;2.80;;;;;;;;;;5065291;28;20084;-80
2023/04/13 12:01:14;;;;;;;8.87;1.93;;;;;;;;;;5067785;28;20031;-80
2023/04/13 12:03:42;;;;;;;17.90;3.03;;;;;;;;;;5073895;28;20137;-79
2023/04/13 12:06:11;;;;;;;14.10;2.60;;;;;;;;;;5064942;28;20029;-81
2023/04/13 12:08:37;;;;;;;17.20;2.97;;;;;;;;;;5064264;28;20025;-80
2023/04/13 12:11:05;;;;;;;12.83;2.50;;;;;;;;;;5062593;28;20058;-80
2023/04/13 12:13:43;;;;;;;15.10;2.30;;;;;;;;;;5062028;28;20029;-80
2023/04/13 12:16:09;;;;;;;14.30;2.27;;;;;;;;;;5081383;28;20024;-79
2023/04/13 12:18:46;;;;;;;11.80;2.40;;;;;;;;;;5062445;28;20386;-79
2023/04/13 12:21:13;;;;;;;10.43;2.57;;;;;;;;;;5067695;28;20091;-81
2023/04/13 12:23:39;;;;;;;14.30;2.00;;;;;;;;;;5067806;28;20037;-79
2023/04/13 12:26:05;;;;;;;10.23;2.17;;;;;;;;;;5069038;28;20043;-80
2023/04/13 12:28:32;;;;;;;12.40;1.67;;;;;;;;;;5063363;28;20026;-81
2023/04/13 12:31:02;;;;;;;13.50;3.13;;;;;;;;;;5069041;28;20037;-80
2023/04/13 12:33:29;;;;;;;15.77;2.67;;;;;;;;;;5068451;28;20064;-80
2023/04/13 12:35:55;;;;;;;11.63;2.20;;;;;;;;;;5062497;28;20088;-79
2023/04/13 12:38:22;;;;;;;6.53;2.23;;;;;;;;;;5064438;28;20052;-80
2023/04/13 12:40:48;;;;;;;9.50;1.80;;;;;;;;;;5062469;28;20025;-80
2023/04/13 12:43:14;;;;;;;11.97;2.77;;;;;;;;;;5058677;28;20069;-80
2023/04/13 12:45:40;;;;;;;6.43;1.60;;;;;;;;;;5064380;28;20033;-81
2023/04/13 12:48:07;;;;;;;7.43;1.40;;;;;;;;;;5064257;28;20038;-80
2023/04/13 12:50:34;;;;;;;6.37;1.43;;;;;;;;;;5065396;28;20633;-80
2023/04/13 12:53:00;;;;;;;6.03;1.50;;;;;;;;;;5064550;28;20067;-80
2023/04/13 12:55:26;;;;;;;6.23;1.77;;;;;;;;;;5062602;28;20079;-80
2023/04/13 12:57:52;;;;;;;6.90;1.50;;;;;;;;;;5064167;28;20032;-79
2023/04/13 13:00:18;;;;;;;9.37;2.03;;;;;;;;;;5068037;28;20109;-80
2023/04/13 13:02:44;;;;;;;6.83;1.53;;;;;;;;;;5065212;28;20123;-81
2023/04/13 13:05:10;;;;;;;8.20;1.30;;;;;;;;;;5059932;28;20034;-78
2023/04/13 13:07:37;;;;;;;13.37;1.73;;;;;;;;;;5062203;28;20030;-80
2023/04/13 13:10:03;;;;;;;12.10;2.17;;;;;;;;;;5059518;28;20037;-80
2023/04/13 13:12:29;;;;;;;6.67;1.70;;;;;;;;;;5055534;28;20426;-80
2023/04/13 13:14:56;;;;;;;8.33;1.60;;;;;;;;;;5056902;28;20727;-80
2023/04/13 13:17:22;;;;;;;11.10;1.77;;;;;;;;;;5059296;28;20051;-80
2023/04/13 13:19:49;;;;;;;8.00;1.67;;;;;;;;;;5056685;28;21592;-80
2023/04/13 13:22:15;;;;;;;8.00;2.40;;;;;;;;;;5054009;28;20292;-80
2023/04/13 13:24:41;;;;;;;6.10;1.40;;;;;;;;;;5061621;28;20025;-80
2023/04/13 13:27:07;;;;;;;7.30;1.63;;;;;;;;;;5063423;28;20243;-80
2023/04/13 13:29:35;;;;;;;4.13;1.03;;;;;;;;;;5059144;28;20051;-80
2023/04/13 13:32:01;;;;;;;4.50;1.33;;;;;;;;;;5049401;28;20038;-80
2023/04/13 13:34:27;;;;;;;7.33;2.10;;;;;;;;;;5053816;28;20059;-80
2023/04/13 13:36:54;;;;;;;8.83;1.90;;;;;;;;;;5057390;28;20030;-80
2023/04/13 13:39:21;;;;;;;9.70;1.80;;;;;;;;;;5061130;28;20028;-79
2023/04/13 13:41:48;;;;;;;7.90;1.70;;;;;;;;;;5057384;28;20032;-79
2023/04/13 13:44:14;;;;;;;8.10;2.13;;;;;;;;;;5066681;28;20385;-80
2023/04/13 13:46:42;;;;;;;8.82;1.90;;;;;;;;;;5060198;28;20029;-80
2023/04/13 13:49:08;;;;;;;12.88;2.25;;;;;;;;;;5047724;28;20060;-80
2023/04/13 13:51:34;;;;;;;7.90;2.13;;;;;;;;;;5061819;28;20026;-80
2023/04/13 13:54:00;;;;;;;7.00;1.60;;;;;;;;;;5062738;28;20040;-79
2023/04/13 13:56:26;;;;;;;11.03;1.83;;;;;;;;;;5050451;28;20033;-80
2023/04/13 13:58:52;;;;;;;9.20;2.30;;;;;;;;;;5057873;28;20094;-80
2023/04/13 14:01:19;;;;;;;10.57;1.87;;;;;;;;;;5061715;28;20029;-80
2023/04/13 14:03:45;;;;;;;11.17;2.33;;;;;;;;;;5058296;28;20037;-79
2023/04/13 14:06:11;;;;;;;9.70;2.10;;;;;;;;;;5057049;28;20070;-80
2023/04/13 14:08:37;;;;;;;6.60;1.80;;;;;;;;;;5057224;28;20034;-79
2023/04/13 14:11:03;;;;;;;4.13;1.57;;;;;;;;;;5054408;28;20033;-81
2023/04/13 14:13:30;;;;;;;6.63;1.97;;;;;;;;;;5062817;28;20040;-80
2023/04/13 14:15:56;;;;;;;9.90;2.40;;;;;;;;;;5060190;28;20097;-80
2023/04/13 14:18:25;;;;;;;7.17;1.83;;;;;;;;;;5060225;28;20025;-80
2023/04/13 14:20:51;;;;;;;13.27;1.90;;;;;;;;;;5063795;28;20029;-80
2023/04/13 14:23:17;;;;;;;9.20;2.40;;;;;;;;;;5062216;28;20030;-79
2023/04/13 14:25:43;;;;;;;6.43;2.17;;;;;;;;;;5059551;28;20037;-79
2023/04/13 14:28:10;;;;;;;7.40;2.00;;;;;;;;;;5060743;28;20064;-80
2023/04/13 14:30:37;;;;;;;5.73;2.00;;;;;;;;;;5061985;28;20037;-80
2023/04/13 14:33:03;;;;;;;7.10;1.60;;;;;;;;;;5061627;28;20035;-80
2023/04/13 14:35:29;;;;;;;9.80;2.30;;;;;;;;;;5059159;28;20036;-79
2023/04/13 14:37:56;;;;;;;8.53;1.63;;;;;;;;;;5059011;28;20065;-79
2023/04/13 14:40:24;;;;;;;9.03;2.20;;;;;;;;;;5074488;28;20064;-80
2023/04/13 14:42:53;;;;;;;6.87;1.77;;;;;;;;;;5063919;28;20055;-82
2023/04/13 14:45:20;;;;;;;10.95;1.90;;;;;;;;;;5065571;28;20052;-80
2023/04/13 14:47:46;;;;;;;7.03;1.73;;;;;;;;;;5064435;28;20033;-79